Latest Weather Observations for Cape Ferguson

IDQ60801

Issued at 7:35 pm EST Sunday 23 November 2014 (issued every 30 minutes, with the page automatically refreshed every 10 minutes)

About weather observations | Map of weather stations | Latest weather observations for QLD | Other Formats
Station Details ID: 032182 Name: CAPE FERGUSON NTC AWS Lat: -19.28 Lon: 147.06 Height: 0.0 m
Data from the previous 72 hours. | See also: Recent months for locations in Queensland
Date/Time
EST
Temp
°C
App
Temp
°C
Dew
Point
Rel
Hum
%
Delta-T
°C
Wind Press
QNH
hPa
Press
MSL
hPa
Rain
since 9 am
mm
Dir
 
Spd
km/h
Gust
km/h
Spd
kts
Gust
kts
23/07:30pm 27.0 - - - - ENE 19 24 10 13 1013.0 1013.0 -
23/07:00pm 27.0 - - - - ENE 20 26 11 14 1012.7 1012.7 -
23/06:30pm 27.1 - - - - ENE 17 22 9 12 1012.5 1012.5 -
23/06:00pm 27.2 - - - - ENE 15 22 8 12 1012.3 1012.3 -
23/05:30pm 27.1 - - - - ENE 19 26 10 14 1012.4 1012.4 -
23/05:00pm 27.2 - - - - ENE 20 24 11 13 1012.4 1012.4 -
23/04:30pm 27.2 - - - - ENE 22 24 12 13 1012.5 1012.5 -
23/04:00pm 27.1 - - - - ENE 20 24 11 13 1012.5 1012.5 -
23/03:30pm 27.1 - - - - ENE 22 26 12 14 1012.6 1012.6 -
23/03:00pm 27.1 - - - - ENE 22 24 12 13 1012.8 1012.8 -
23/02:30pm 27.4 - - - - ENE 22 26 12 14 1013.1 1013.1 -
23/02:00pm 27.0 - - - - ENE 22 26 12 14 1013.3 1013.3 -
23/01:30pm 27.2 - - - - ENE 22 26 12 14 1013.7 1013.7 -
23/01:00pm 27.2 - - - - ENE 22 26 12 14 1014.0 1014.0 -
23/12:30pm 27.1 - - - - ENE 19 24 10 13 1014.3 1014.3 -
23/12:00pm 27.2 - - - - E 19 22 10 12 1014.6 1014.6 -
23/11:30am 27.2 - - - - E 19 24 10 13 1015.0 1015.0 -
23/11:00am 27.3 - - - - E 17 20 9 11 1015.2 1015.2 -
23/10:30am 27.0 - - - - ENE 15 20 8 11 1015.4 1015.4 -
23/10:00am 27.0 - - - - ENE 15 19 8 10 1015.6 1015.6 -
23/09:30am 26.9 - - - - E 15 17 8 9 1015.6 1015.6 -
23/09:00am 26.9 - - - - E 17 20 9 11 1015.4 1015.4 -
23/08:30am 26.8 - - - - ENE 15 20 8 11 1015.4 1015.4 -
23/08:00am 26.9 - - - - ENE 15 17 8 9 1015.1 1015.1 -
23/07:30am 27.0 - - - - ENE 17 20 9 11 1015.0 1015.0 -
23/07:00am 26.8 - - - - E 15 22 8 12 1014.6 1014.6 -
23/06:30am 26.8 - - - - E 15 19 8 10 1014.1 1014.1 -
23/06:00am 26.7 - - - - ENE 15 19 8 10 1013.7 1013.7 -
23/05:30am 26.5 - - - - ENE 15 19 8 10 1013.3 1013.3 -
23/05:00am 26.6 - - - - ENE 11 17 6 9 1013.0 1013.0 -
23/04:30am 26.5 - - - - ENE 13 17 7 9 1012.8 1012.8 -
23/04:00am 26.6 - - - - ENE 9 17 5 9 1012.7 1012.7 -
23/03:30am 26.5 - - - - ENE 13 20 7 11 1012.5 1012.5 -
23/03:00am 26.5 - - - - ENE 15 24 8 13 1012.5 1012.5 -
23/02:30am 26.7 - - - - ENE 17 22 9 12 1012.7 1012.7 -
23/02:00am 26.7 - - - - ENE 13 20 7 11 1012.8 1012.8 -
23/01:30am 26.7 - - - - ENE 11 22 6 12 1013.0 1013.0 -
23/01:00am 26.8 - - - - ENE 13 22 7 12 1013.3 1013.3 -
23/12:30am 26.8 - - - - ENE 13 22 7 12 1013.9 1013.9 -
23/12:00am 26.9 - - - - ENE 15 22 8 12 1014.2 1014.2 -
 
Date/Time
EST
Temp
°C
App
Temp
°C
Dew
Point
Rel
Hum
%
Delta-T
°C
Wind Press
QNH
hPa
Press
MSL
hPa
Rain
since 9 am
mm
Dir
 
Spd
km/h
Gust
km/h
Spd
kts
Gust
kts
22/11:30pm 26.9 - - - - ENE 11 20 6 11 1014.1 1014.1 -
22/11:00pm 26.9 - - - - ENE 11 22 6 12 1014.3 1014.3 -
22/10:30pm 26.9 - - - - ENE 13 22 7 12 1014.4 1014.4 -
22/10:00pm 26.9 - - - - ENE 11 19 6 10 1014.1 1014.1 -
22/09:30pm 26.9 - - - - ENE 13 20 7 11 1013.9 1013.9 -
22/09:00pm 26.9 - - - - ENE 9 19 5 10 1013.6 1013.6 -
22/08:30pm 26.9 - - - - ENE 9 22 5 12 1013.3 1013.3 -
22/08:00pm 27.0 - - - - ENE 11 20 6 11 1012.9 1012.9 -
22/07:30pm 26.9 - - - - ENE 9 19 5 10 1012.6 1012.6 -
22/07:00pm 27.1 - - - - ENE 9 19 5 10 1012.2 1012.2 -
22/06:30pm 27.2 - - - - ENE 11 22 6 12 1012.0 1012.0 -
22/06:00pm 27.4 - - - - NE 9 20 5 11 1012.0 1012.0 -
22/05:30pm 27.5 - - - - ENE 9 20 5 11 1012.0 1012.0 -
22/05:00pm 27.3 - - - - ENE 11 20 6 11 1011.7 1011.7 -
22/04:30pm 27.5 - - - - ENE 13 24 7 13 1011.6 1011.6 -
22/04:00pm 27.5 - - - - ENE 13 26 7 14 1011.6 1011.6 -
22/03:30pm 27.7 - - - - ENE 11 22 6 12 1011.5 1011.5 -
22/03:00pm 27.6 - - - - ENE 13 26 7 14 1011.8 1011.8 -
22/02:30pm 27.7 - - - - NE 11 24 6 13 1012.1 1012.1 -
22/02:00pm 27.6 - - - - ENE 13 22 7 12 1012.4 1012.4 -
22/01:30pm 27.7 - - - - ENE 13 24 7 13 1012.8 1012.8 -
22/01:00pm 27.9 - - - - ENE 13 22 7 12 1013.2 1013.2 -
22/12:30pm 27.5 - - - - ENE 11 17 6 9 1013.4 1013.4 -
22/12:00pm 27.3 - - - - ENE 9 19 5 10 1013.8 1013.8 -
22/11:30am 27.7 - - - - ENE 9 17 5 9 1014.0 1014.0 -
22/11:00am 27.8 - - - - ENE 7 15 4 8 1014.3 1014.3 -
22/10:30am 27.5 - - - - ENE 9 19 5 10 1014.6 1014.6 -
22/10:00am 27.3 - - - - ENE 11 19 6 10 1014.8 1014.8 -
22/09:30am 27.2 - - - - ENE 9 15 5 8 1014.7 1014.7 -
22/09:00am 27.3 - - - - ENE 11 17 6 9 1014.6 1014.6 -
22/08:30am 27.4 - - - - ENE 7 17 4 9 1014.4 1014.4 -
22/08:00am 27.2 - - - - ENE 9 17 5 9 1014.1 1014.1 -
22/07:30am 27.2 - - - - ENE 9 17 5 9 1013.9 1013.9 -
22/07:00am 27.5 - - - - E 4 11 2 6 1013.8 1013.8 -
22/06:30am 27.0 - - - - W 4 11 2 6 1013.5 1013.5 -
22/06:00am 26.6 - - - - ESE 4 9 2 5 1013.4 1013.4 -
22/05:30am 26.4 - - - - ENE 6 15 3 8 1013.0 1013.0 -
22/05:00am 26.5 - - - - SW 4 9 2 5 1012.9 1012.9 -
22/04:30am 26.3 - - - - WNW 6 15 3 8 1012.7 1012.7 -
22/04:00am 26.5 - - - - SE 6 13 3 7 1012.3 1012.3 -
22/03:30am 26.5 - - - - WSW 4 7 2 4 1012.3 1012.3 -
22/03:00am 26.5 - - - - W 4 13 2 7 1012.3 1012.3 -
22/02:30am 26.4 - - - - WSW 4 7 2 4 1012.0 1012.0 -
22/02:00am 26.5 - - - - ENE 4 13 2 7 1012.0 1012.0 -
22/01:30am 26.5 - - - - ENE 7 17 4 9 1012.2 1012.2 -
22/01:00am 26.6 - - - - E 6 13 3 7 1012.6 1012.6 -
22/12:30am 26.6 - - - - WNW 7 15 4 8 1013.2 1013.2 -
22/12:00am 26.7 - - - - ENE 7 17 4 9 1013.1 1013.1 -
 
Date/Time
EST
Temp
°C
App
Temp
°C
Dew
Point
Rel
Hum
%
Delta-T
°C
Wind Press
QNH
hPa
Press
MSL
hPa
Rain
since 9 am
mm
Dir
 
Spd
km/h
Gust
km/h
Spd
kts
Gust
kts
21/11:30pm 26.8 - - - - E 9 19 5 10 1013.2 1013.2 -
21/11:00pm 26.8 - - - - ENE 7 17 4 9 1013.5 1013.5 -
21/10:30pm 26.8 - - - - ENE 9 20 5 11 1013.7 1013.7 -
21/10:00pm 26.8 - - - - ENE 9 20 5 11 1013.9 1013.9 -
21/09:30pm 26.8 - - - - ENE 7 20 4 11 1013.6 1013.6 -
21/09:00pm 26.8 - - - - ENE 11 19 6 10 1013.6 1013.6 -
21/08:30pm 26.8 - - - - ENE 11 19 6 10 1013.5 1013.5 -
21/08:00pm 26.8 - - - - ENE 11 22 6 12 1013.2 1013.2 -
21/07:30pm 26.7 - - - - ENE 13 20 7 11 1012.7 1012.7 -
21/07:00pm 26.6 - - - - ENE 13 19 7 10 1012.2 1012.2 -
21/06:30pm 26.6 - - - - ENE 17 22 9 12 1011.9 1011.9 -
21/06:00pm 26.8 - - - - ENE 15 24 8 13 1011.5 1011.5 -
21/05:30pm 27.0 - - - - ENE 13 24 7 13 1011.4 1011.4 -
21/05:00pm 27.1 - - - - ENE 13 20 7 11 1011.2 1011.2 -
21/04:30pm 27.3 - - - - NE 11 22 6 12 1011.0 1011.0 -
21/04:00pm 27.3 - - - - ENE 11 22 6 12 1011.2 1011.2 -
21/03:30pm 27.7 - - - - ENE 11 22 6 12 1011.4 1011.4 -
21/03:00pm 27.3 - - - - NE 11 20 6 11 1011.7 1011.7 -
21/02:30pm 27.5 - - - - NE 9 20 5 11 1012.0 1012.0 -
21/02:00pm 27.6 - - - - NE 9 19 5 10 1012.6 1012.6 -
21/01:30pm 27.8 - - - - NNE 7 17 4 9 1013.0 1013.0 -
21/01:00pm 26.9 - - - - ENE 11 19 6 10 1013.5 1013.5 -
21/12:30pm 27.0 - - - - ENE 9 17 5 9 1013.7 1013.7 -
21/12:00pm 26.7 - - - - E 9 15 5 8 1014.2 1014.2 -
21/11:30am 27.2 - - - - ENE 7 17 4 9 1014.6 1014.6 -
21/11:00am 27.7 - - - - NE 7 17 4 9 1014.3 1014.3 -
21/10:30am 27.1 - - - - NE 9 13 5 7 1014.8 1014.8 -
21/10:00am 26.7 - - - - ENE 7 13 4 7 1015.4 1015.4 -
21/09:30am 26.7 - - - - ENE 9 13 5 7 1015.6 1015.6 -
21/09:00am 26.7 - - - - ENE 9 15 5 8 1015.6 1015.6 -
21/08:30am 27.2 - - - - ENE 7 13 4 7 1015.5 1015.5 -
21/08:00am 26.7 - - - - ENE 9 15 5 8 1015.5 1015.5 -
21/07:30am 26.6 - - - - NE 9 17 5 9 1015.0 1015.0 -
21/07:00am 26.6 - - - - ENE 9 19 5 10 1014.6 1014.6 -
21/06:30am 26.3 - - - - ENE 11 22 6 12 1014.2 1014.2 -
21/06:00am 26.2 - - - - ENE 13 26 7 14 1013.9 1013.9 -
21/05:30am 26.1 - - - - ENE 11 22 6 12 1013.7 1013.7 -
21/05:00am 26.1 - - - - ENE 11 20 6 11 1013.6 1013.6 -
21/04:30am 26.0 - - - - ENE 9 19 5 10 1013.5 1013.5 -
21/04:00am 26.1 - - - - ENE 13 24 7 13 1013.2 1013.2 -
21/03:30am 26.1 - - - - ENE 15 24 8 13 1013.0 1013.0 -
21/03:00am 26.1 - - - - ENE 17 28 9 15 1013.0 1013.0 -
21/02:30am 26.2 - - - - ENE 20 28 11 15 1013.0 1013.0 -
21/02:00am 26.2 - - - - ENE 19 28 10 15 1012.9 1012.9 -
21/01:30am 26.2 - - - - ENE 11 26 6 14 1012.9 1012.9 -
21/01:00am 26.2 - - - - ENE 15 28 8 15 1013.4 1013.4 -
21/12:30am 26.3 - - - - ENE 15 22 8 12 1013.6 1013.6 -
21/12:00am 26.3 - - - - ENE 19 28 10 15 1014.0 1014.0 -
 
Date/Time
EST
Temp
°C
App
Temp
°C
Dew
Point
Rel
Hum
%
Delta-T
°C
Wind Press
QNH
hPa
Press
MSL
hPa
Rain
since 9 am
mm
Dir
 
Spd
km/h
Gust
km/h
Spd
kts
Gust
kts
20/11:30pm 26.3 - - - - ENE 20 28 11 15 1014.2 1014.2 -
20/11:00pm 26.5 - - - - ENE 20 24 11 13 1014.6 1014.6 -
20/10:30pm 26.5 - - - - ENE 17 22 9 12 1014.7 1014.7 -
20/10:00pm 26.6 - - - - ENE 13 20 7 11 1014.6 1014.6 -
20/09:30pm 26.6 - - - - ENE 13 20 7 11 1014.4 1014.4 -
20/09:00pm 26.5 - - - - ENE 17 22 9 12 1014.2 1014.2 -
20/08:30pm 26.5 - - - - ENE 17 28 9 15 1013.8 1013.8 -
20/08:00pm 26.8 - - - - ENE 15 24 8 13 1013.4 1013.4 -

Other Formats:

Comma delimited format used in spreadsheet applications
http://www.bom.gov.au/fwo/IDQ60801/IDQ60801.94297.axf

JavaScript Object Notation format (JSON) in row-major order
http://www.bom.gov.au/fwo/IDQ60801/IDQ60801.94297.json